Terminal Aerodrome Forecast
Issued by NWS

Home | Current Version | Previous Version | Text Only | Print | Product List | Glossary On
Versions: 1 2 3 4 5 6 7 8 9 10 11 12 13 14 15 16 17 18 19 20 21 22 23 24 25 26
000
FTUS41 KALY 171700 CCA
TAFPSF
TAF COR
KPSF 171757Z 1718/1818 28005KT P6SM OVC006
      TEMPO 1718/1721 00000KT 2SM BR SCT005 OVC010
     FM172100 28008KT P6SM OVC010
      TEMPO 1721/1724 OVC005
     FM180600 28012G20KT P6SM OVC015
     FM181300 29015G25KT P6SM BKN025=

USA.gov is the U.S. government's official web portal to all federal, state and local government web resources and services.